This is the latest recevied weather packets stored in our database for station/object AA0PB. If no packets are shown the sender has not sent any weather packets the latest 10 day(s).
| Time | Temp. | Humidity | Pressure | Rain* | Wind** | Luminosity | Snow |
|---|---|---|---|---|---|---|---|
| 1777861755 | 31.11° C | 30% | 1007.6 hPa | 0 mm | - | 49 W/m² | - |
| 1777861452 | 31.11° C | 28% | 1007.7 hPa | 0 mm | - | 58 W/m² | - |
| 1777861149 | 31.11° C | 28% | 1007.5 hPa | 0 mm | - | 66 W/m² | - |
| 1777860846 | 31.11° C | 28% | 1007.6 hPa | 0 mm | - | 75 W/m² | - |
| 1777860543 | 31.67° C | 27% | 1007.6 hPa | 0 mm | - | 84 W/m² | - |
| 1777860239 | 31.67° C | 26% | 1007.5 hPa | 0 mm | - | 95 W/m² | - |
| 1777859935 | 31.67° C | 26% | 1007.5 hPa | 0 mm | - | 105 W/m² | - |
| 1777859631 | 31.67° C | 26% | 1007.6 hPa | 0 mm | - | 113 W/m² | - |
| 1777859328 | 31.67° C | 25% | 1007.5 hPa | 0 mm | - | 124 W/m² | - |
| 1777859024 | 31.67° C | 24% | 1007.7 hPa | 0 mm | - | 135 W/m² | - |
| 1777858722 | 31.67° C | 24% | 1007.6 hPa | 0 mm | - | 143 W/m² | - |
| 1777858419 | 31.67° C | 25% | 1007.5 hPa | 0 mm | - | 154 W/m² | - |
| 1777858116 | 31.67° C | 26% | 1007.7 hPa | 0 mm | - | 165 W/m² | - |
| 1777857814 | 32.78° C | 23% | 1007.8 hPa | 0 mm | - | 175 W/m² | - |
| 1777857511 | 32.22° C | 25% | 1007.6 hPa | 0 mm | - | 188 W/m² | - |
| 1777857207 | 32.78° C | 24% | 1008.1 hPa | 0 mm | - | 200 W/m² | - |
| 1777856903 | 32.22° C | 24% | 1007.7 hPa | 0 mm | - | 213 W/m² | - |
| 1777856599 | 32.22° C | 23% | 1007.9 hPa | 0 mm | - | 225 W/m² | - |
| 1777856296 | 32.22° C | 23% | 1008 hPa | 0 mm | - | 237 W/m² | - |
| 1777855993 | 32.78° C | 22% | 1008.1 hPa | 0 mm | - | 249 W/m² | - |
| 1777855690 | 33.33° C | 22% | 1008 hPa | 0 mm | - | 262 W/m² | - |
| 1777855388 | 32.78° C | 22% | 1008.3 hPa | 0 mm | - | 274 W/m² | - |
| 1777855084 | 33.33° C | 21% | 1008.2 hPa | 0 mm | - | 286 W/m² | - |
| 1777854781 | 32.78° C | 23% | 1008 hPa | 0 mm | - | 301 W/m² | - |
| 1777854477 | 32.78° C | 24% | 1008.1 hPa | 0 mm | - | 314 W/m² | - |
* Rain latest hour (hover to see other rain measurements)
** Current wind speed in m/s (hover to see current wind gust speed)